sensor_id;sensor_type;location;lat;lon;timestamp;P1;durP1;ratioP1;P2;durP2;ratioP2
64242;SDS011;50573;51.512;5.386;2023-01-28T00:02:47;18.48;;;16.30;;
64242;SDS011;50573;51.512;5.386;2023-01-28T00:12:52;16.60;;;14.48;;
64242;SDS011;50573;51.512;5.386;2023-01-28T00:22:55;16.47;;;14.77;;
64242;SDS011;50573;51.512;5.386;2023-01-28T00:43:03;14.47;;;9.60;;
64242;SDS011;50573;51.512;5.386;2023-01-28T00:53:07;18.85;;;12.23;;
64242;SDS011;50573;51.512;5.386;2023-01-28T01:03:10;19.73;;;12.60;;
64242;SDS011;50573;51.512;5.386;2023-01-28T01:13:14;20.30;;;12.70;;
64242;SDS011;50573;51.512;5.386;2023-01-28T01:23:18;19.50;;;11.97;;
64242;SDS011;50573;51.512;5.386;2023-01-28T01:33:22;20.83;;;12.40;;
64242;SDS011;50573;51.512;5.386;2023-01-28T01:43:43;22.43;;;13.67;;
64242;SDS011;50573;51.512;5.386;2023-01-28T01:53:50;19.85;;;13.20;;
64242;SDS011;50573;51.512;5.386;2023-01-28T02:03:56;21.40;;;13.00;;
64242;SDS011;50573;51.512;5.386;2023-01-28T07:39:02;21.10;;;12.35;;
64242;SDS011;50573;51.512;5.386;2023-01-28T07:49:05;21.77;;;13.07;;
64242;SDS011;50573;51.512;5.386;2023-01-28T07:59:09;25.27;;;14.18;;
64242;SDS011;50573;51.512;5.386;2023-01-28T08:09:12;17.73;;;10.73;;
64242;SDS011;50573;51.512;5.386;2023-01-28T08:19:19;25.17;;;13.77;;
64242;SDS011;50573;51.512;5.386;2023-01-28T08:29:22;25.77;;;14.20;;
64242;SDS011;50573;51.512;5.386;2023-01-28T08:39:27;20.58;;;12.48;;
64242;SDS011;50573;51.512;5.386;2023-01-28T08:49:30;18.67;;;10.13;;
64242;SDS011;50573;51.512;5.386;2023-01-28T08:59:34;22.15;;;13.43;;
64242;SDS011;50573;51.512;5.386;2023-01-28T09:09:41;20.88;;;13.10;;
64242;SDS011;50573;51.512;5.386;2023-01-28T09:19:45;23.67;;;14.32;;
64242;SDS011;50573;51.512;5.386;2023-01-28T09:29:49;20.67;;;13.82;;
64242;SDS011;50573;51.512;5.386;2023-01-28T09:39:53;21.35;;;13.80;;
64242;SDS011;50573;51.512;5.386;2023-01-28T09:49:57;19.60;;;11.17;;
64242;SDS011;50573;51.512;5.386;2023-01-28T10:00:10;22.58;;;13.63;;
64242;SDS011;50573;51.512;5.386;2023-01-28T10:10:16;23.13;;;13.63;;
64242;SDS011;50573;51.512;5.386;2023-01-28T10:20:26;21.63;;;13.88;;
64242;SDS011;50573;51.512;5.386;2023-01-28T10:30:33;19.55;;;13.32;;
64242;SDS011;50573;51.512;5.386;2023-01-28T10:40:41;20.88;;;13.45;;
64242;SDS011;50573;51.512;5.386;2023-01-28T10:50:49;17.70;;;12.10;;
64242;SDS011;50573;51.512;5.386;2023-01-28T11:00:55;21.37;;;12.63;;
64242;SDS011;50573;51.512;5.386;2023-01-28T11:11:01;20.35;;;11.93;;
64242;SDS011;50573;51.512;5.386;2023-01-28T11:21:06;20.05;;;13.32;;
64242;SDS011;50573;51.512;5.386;2023-01-28T11:31:18;21.05;;;13.18;;
64242;SDS011;50573;51.512;5.386;2023-01-28T11:41:26;21.15;;;11.90;;
64242;SDS011;50573;51.512;5.386;2023-01-28T11:51:33;18.95;;;12.02;;
64242;SDS011;50573;51.512;5.386;2023-01-28T12:01:46;22.08;;;13.65;;
64242;SDS011;50573;51.512;5.386;2023-01-28T12:12:00;20.52;;;13.45;;
64242;SDS011;50573;51.512;5.386;2023-01-28T12:22:24;22.40;;;14.82;;
64242;SDS011;50573;51.512;5.386;2023-01-28T12:32:39;22.67;;;14.10;;
64242;SDS011;50573;51.512;5.386;2023-01-28T12:42:53;18.92;;;11.98;;
64242;SDS011;50573;51.512;5.386;2023-01-28T12:53:03;20.52;;;13.15;;
64242;SDS011;50573;51.512;5.386;2023-01-28T13:03:22;22.65;;;12.57;;
64242;SDS011;50573;51.512;5.386;2023-01-28T13:13:33;18.42;;;12.75;;
64242;SDS011;50573;51.512;5.386;2023-01-28T13:23:41;18.52;;;11.52;;
64242;SDS011;50573;51.512;5.386;2023-01-28T13:33:46;18.33;;;10.52;;
64242;SDS011;50573;51.512;5.386;2023-01-28T13:43:51;16.85;;;10.20;;
64242;SDS011;50573;51.512;5.386;2023-01-28T13:53:55;15.43;;;9.97;;
64242;SDS011;50573;51.512;5.386;2023-01-28T14:25:28;15.55;;;9.60;;
64242;SDS011;50573;51.512;5.386;2023-01-28T14:35:44;15.52;;;9.32;;
64242;SDS011;50573;51.512;5.386;2023-01-28T14:45:56;13.35;;;9.07;;
64242;SDS011;50573;51.512;5.386;2023-01-28T14:56:14;20.30;;;12.13;;
64242;SDS011;50573;51.512;5.386;2023-01-28T15:36:41;17.52;;;10.68;;
64242;SDS011;50573;51.512;5.386;2023-01-28T15:56:48;18.05;;;11.15;;
64242;SDS011;50573;51.512;5.386;2023-01-28T16:06:52;22.80;;;13.32;;
64242;SDS011;50573;51.512;5.386;2023-01-28T16:27:02;19.25;;;10.82;;
64242;SDS011;50573;51.512;5.386;2023-01-28T16:37:09;24.30;;;13.52;;
64242;SDS011;50573;51.512;5.386;2023-01-28T16:47:12;23.00;;;13.38;;
64242;SDS011;50573;51.512;5.386;2023-01-28T16:57:17;20.95;;;12.60;;
64242;SDS011;50573;51.512;5.386;2023-01-28T17:07:22;28.02;;;15.30;;
64242;SDS011;50573;51.512;5.386;2023-01-28T17:17:27;26.27;;;14.85;;
64242;SDS011;50573;51.512;5.386;2023-01-28T17:27:30;28.08;;;14.80;;
64242;SDS011;50573;51.512;5.386;2023-01-28T17:37:35;26.73;;;14.50;;
64242;SDS011;50573;51.512;5.386;2023-01-28T17:47:38;26.38;;;13.95;;
64242;SDS011;50573;51.512;5.386;2023-01-28T17:57:43;31.58;;;16.95;;
64242;SDS011;50573;51.512;5.386;2023-01-28T18:17:52;34.30;;;17.88;;
64242;SDS011;50573;51.512;5.386;2023-01-28T18:27:56;40.17;;;18.05;;
64242;SDS011;50573;51.512;5.386;2023-01-28T18:38:00;42.05;;;21.02;;
64242;SDS011;50573;51.512;5.386;2023-01-28T18:58:08;39.33;;;20.88;;
64242;SDS011;50573;51.512;5.386;2023-01-28T19:08:13;40.63;;;21.85;;
64242;SDS011;50573;51.512;5.386;2023-01-28T19:18:17;43.55;;;21.70;;
64242;SDS011;50573;51.512;5.386;2023-01-28T19:38:25;49.15;;;22.48;;
64242;SDS011;50573;51.512;5.386;2023-01-28T19:48:29;45.30;;;23.55;;
64242;SDS011;50573;51.512;5.386;2023-01-28T19:58:34;43.97;;;22.07;;
64242;SDS011;50573;51.512;5.386;2023-01-28T20:08:39;65.35;;;33.17;;
64242;SDS011;50573;51.512;5.386;2023-01-28T20:18:44;57.53;;;27.65;;
64242;SDS011;50573;51.512;5.386;2023-01-28T20:28:50;63.72;;;31.92;;
64242;SDS011;50573;51.512;5.386;2023-01-28T20:38:55;55.58;;;28.02;;
64242;SDS011;50573;51.512;5.386;2023-01-28T20:59:11;55.53;;;27.80;;
64242;SDS011;50573;51.512;5.386;2023-01-28T21:09:14;47.63;;;24.58;;
64242;SDS011;50573;51.512;5.386;2023-01-28T21:19:19;57.63;;;28.23;;
64242;SDS011;50573;51.512;5.386;2023-01-28T21:29:22;61.17;;;28.67;;
64242;SDS011;50573;51.512;5.386;2023-01-28T21:39:27;52.40;;;26.58;;
64242;SDS011;50573;51.512;5.386;2023-01-28T21:49:30;54.83;;;28.38;;
64242;SDS011;50573;51.512;5.386;2023-01-28T21:59:34;59.42;;;29.42;;
64242;SDS011;50573;51.512;5.386;2023-01-28T22:09:40;52.78;;;25.00;;
64242;SDS011;50573;51.512;5.386;2023-01-28T22:19:45;67.30;;;32.03;;
64242;SDS011;50573;51.512;5.386;2023-01-28T22:29:49;49.85;;;25.02;;
64242;SDS011;50573;51.512;5.386;2023-01-28T22:39:55;53.15;;;26.67;;
64242;SDS011;50573;51.512;5.386;2023-01-28T23:00:05;51.05;;;24.95;;
64242;SDS011;50573;51.512;5.386;2023-01-28T23:10:12;47.42;;;23.52;;
64242;SDS011;50573;51.512;5.386;2023-01-28T23:20:17;46.33;;;22.17;;
64242;SDS011;50573;51.512;5.386;2023-01-28T23:30:38;49.97;;;22.52;;
64242;SDS011;50573;51.512;5.386;2023-01-28T23:40:43;36.50;;;17.63;;
64242;SDS011;50573;51.512;5.386;2023-01-28T23:50:46;52.45;;;25.33;;
